Ride Results

Jolly Lette Memorial Ride (25-08-2012)
Ride distance: 80.0 km

Outcomes - Jolly Lette Memorial Ride (25-08-2012)
Division No. of Entries Retired / DNE Completed Withdrawn Ineligible V/O Percentage Completed
HW 12 - 6 1 - 5 50.00%
MW 24 - 20 1 - 3 83.33%
LW 6 - 5 1 - - 83.33%
JN 12 - 10 - - 2 83.33%
Totals 54 - 41 3 - 10 75.93%
Results - Jolly Lette Memorial Ride (25-08-2012)
No. Rider Horse Place Time Leg Speeds Total
Km/Hr
H/R bpm
Heavyweight
38 Tony Purton Jeshar Park Shahriann 1 (BC) 4:39:00 20.6, 14.7 17.20 36, 40, 58 (Avg:49)
199 Dennis Foley Jnr Jack 2 5:24:00 17.5, 12.8 14.81 38, 48, 51 (Avg:49)
93 Jeremy Ford Ruby Running Bare 3 5:59:00 15.9, 11.4 13.37 38, 49, 51 (Avg:50)
140 Stuart King Kaban 4 7:14:00 12.1, 10.1 11.06 35, 46, 57 (Avg:51)
257 Sarah Watson Walford Pride of Fleur 5 7:32:00 10.7, 10.5 10.62 40, 38, 59 (Avg:48)
141 Tim Potter Ellusive Design 6 7:33:00 10.2, 10.9 10.60 59, 43, 48 (Avg:45)
197 Erin Gadsby Sheikh Lame L2 0:00:00 15.5, 11.7 - 35, 44, 48 (Avg:46)
137 John Shoobridge Fantasia Lame L2 0:00:00 20.6, 15.1 - 36, 54, 50 (Avg:52)
171 Craig Wall Sharabhan Sashmah Lame L2 0:00:00 22.2, 15.9 - 38, 52, 59 (Avg:55)
22 Helen Astell Soli Withdrawn L1 0:00:00 - - 36, 40 (Avg:40)
247 David Pilgrim Willow Valley Majestic Lame L1 0:00:00 10.1 - 56, 37 (Avg:37)
302 Winston Pilgrim Pictures of Lily Lame L1 0:00:00 10.1 - 32, 46 (Avg:46)
Middleweight
78 Brad Hill Lockleigh Park Sparks Afire 1 3:56:00 21.8, 19.0 20.34 49, 49, 60 (Avg:54)
99 Heather Johnson Black Heart Dashar 2 (BC) 4:26:00 20.5, 16.1 18.05 36, 43, 48 (Avg:45)
310 Kahid Mohamed al Mazam Ausden Anastacia 3 5:24:00 17.5, 12.8 14.81 58, 48, 53 (Avg:50)
29 Lynette Walker Samson of Glendhu 4 5:29:00 17.6, 12.4 14.59 36, 49, 48 (Avg:48)
15 Sonia Brown-Cordell Yondover Ridge Celest 5 6:10:00 12.7, 13.1 12.97 31, 40, 42 (Avg:41)
143 Pauline Goodwin Marley Hosanna 6 6:28:00 13.9, 11.1 12.37 34, 41, 45 (Avg:43)
138 Kristen Robertson Cameo Izaiah 6 6:28:00 13.9, 11.1 12.37 40, 36, 45 (Avg:40)
256 Wendy Smith Sir Angus of Seven Oaks 8 6:41:00 11.9, 11.9 11.97 36, 33, 50 (Avg:41)
136 Kaye Mitchell Beer Street Willis 9 6:45:00 12.7, 11.0 11.85 37, 46, 51 (Avg:48)
68 Janine Parr Janarr Prince Hector 9 6:45:00 12.7, 11.0 11.85 37, 42, 52 (Avg:47)
57 Tania Jago Rivergum Ripper 11 6:47:00 12.8, 10.9 11.79 38, 39, 49 (Avg:44)
219 Robert Crowe Kalody Park Patriack 12 7:01:00 12.6, 10.3 11.40 41, 50, 49 (Avg:49)
3 Brenda Hardwicke Performance Park Riverdance 13 7:04:00 12.1, 10.5 11.32 30, 37, 45 (Avg:41)
266 Sarah Wells Thaedon Latte 13 7:04:00 12.1, 10.5 11.32 42, 47, 54 (Avg:50)
249 Hussain Ali AlMarzooqi Tierview Saahir 15 7:14:00 12.1, 10.1 11.06 40, 49, 53 (Avg:51)
187 Sheleah Astell Costa Zu 15 7:14:00 12.1, 10.1 11.06 35, 48, 47 (Avg:47)
269 Korena Armstrong Highland View Deputy 17 7:27:00 11.2, 10.3 10.74 39, 46, 56 (Avg:51)
180 Nicole Ford Highland View Duchess 18 7:32:00 11.1, 10.1 10.62 42, 43, 45 (Avg:44)
179 Debbie Grull Hampton Park Contessa 18 7:32:00 11.1, 10.1 10.62 36, 43, 48 (Avg:45)
259 Judi Leale Enderby Zelenka 20 7:33:00 10.2, 10.9 10.60 39, 43, 58 (Avg:50)
92 Blaine Astell Tuldar Shalimar Heart Rate L2 0:00:00 12.4, 12.1 - 45, 50, 76 (Avg:63)
185 Dale Press Undurra Geisha Lame L2 0:00:00 20.6, 17.2 - 42, 51, 56 (Avg:53)
119 Max Lockhart Billy Lame L1 0:00:00 9.2 - 33, 39 (Avg:39)
21 Karen Quinn Merlin Withdrawn L1 0:00:00 - - 50, 54 (Avg:54)
Lightweight
37 Jen Clingly Imaj Zamir 1 (BC) 5:59:00 15.9, 11.4 13.37 32, 40, 55 (Avg:47)
239 Cindy Hogg Seabrook Lodge Stormbreaker 2 6:47:00 12.8, 10.9 11.79 62, 42, 41 (Avg:41)
231 Andrew Matthews Johean Johan 3 7:01:00 12.6, 10.3 11.40 40, 42, 43 (Avg:42)
19 Sonia Hodgetts Sandine Jerez 4 7:27:00 11.2, 10.3 10.74 34, 45, 48 (Avg:46)
54 Brooke McKenna DJ Bazza 5 7:32:00 10.7, 10.5 10.62 29, 47, 60 (Avg:53)
90 Angela Hawks Cyclone Larry Withdrawn P/R 0:00:00 - - 39
Junior
79 Shannon Hill Lockleigh Park Wildfire 1 (BC) 3:56:00 21.8, 19.0 20.34 31, 40, 45 (Avg:42)
209 Grace Huxtable Highland View Jess 2 5:07:00 17.6, 14.0 15.64 31, 49, 48 (Avg:48)
190 Alice Mitchell Beer Street Banshee 3 5:47:00 16.3, 11.9 13.83 35, 39, 49 (Avg:44)
154 Sarah Parker King Park Aberdeen Pelion 3 5:47:00 17.5, 11.4 13.83 33, 50, 45 (Avg:47)
125 Brooke Brown-Cordell Lynn-Roy Raziek 5 6:10:00 12.7, 13.1 12.97 36, 49, 56 (Avg:52)
135 Breaana Smith Ebjarah Talismin 6 6:41:00 11.9, 11.9 11.97 38, 48, 59 (Avg:53)
47 Hannah Colbeck Hunter 7 7:09:00 11.2, 11.1 11.19 35, 46, 52 (Avg:49)
74 Felicity Perry Malricia Delledo 7 7:09:00 11.2, 11.1 11.19 37, 41, 49 (Avg:45)
261 Danielle Taylor Vandieman Tassie Devil 7 7:09:00 11.2, 11.1 11.19 45, 47, 52 (Avg:49)
176 Bronte Page Calga Al-Hadiye 10 7:32:00 10.7, 10.5 10.62 38, 48, 51 (Avg:49)
237 Khalan Ford Rocky Point Red Jasper Lame L2 0:00:00 11.1, 9.7 - 33, 48, 44 (Avg:46)
113 Kirstie Lockhart Lockleigh Park Star Heart Rate L2 0:00:00 21.8, 19.0 - 34, 46, 67 (Avg:56)